sensor_id;sensor_type;location;lat;lon;timestamp;pressure;altitude;pressure_sealevel;temperature;humidity
81822;BME280;71257;52.192;5.654;2023-07-31T00:02:21;100828.97;;;13.55;97.94
81822;BME280;71257;52.192;5.654;2023-07-31T00:04:47;100824.09;;;13.58;98.02
81822;BME280;71257;52.192;5.654;2023-07-31T00:07:14;100819.94;;;13.55;98.48
81822;BME280;71257;52.192;5.654;2023-07-31T00:09:39;100811.34;;;13.63;98.12
81822;BME280;71257;52.192;5.654;2023-07-31T00:12:05;100816.34;;;13.66;97.97
81822;BME280;71257;52.192;5.654;2023-07-31T00:14:30;100812.41;;;13.62;98.03
81822;BME280;71257;52.192;5.654;2023-07-31T00:16:56;100809.19;;;13.65;98.36
81822;BME280;71257;52.192;5.654;2023-07-31T00:19:21;100808.47;;;13.70;98.15
81822;BME280;71257;52.192;5.654;2023-07-31T00:21:46;100814.28;;;13.73;98.25
81822;BME280;71257;52.192;5.654;2023-07-31T00:24:12;100803.34;;;13.73;98.36
81822;BME280;71257;52.192;5.654;2023-07-31T00:26:37;100805.69;;;13.81;98.41
81822;BME280;71257;52.192;5.654;2023-07-31T00:29:02;100797.97;;;13.78;98.21
81822;BME280;71257;52.192;5.654;2023-07-31T00:31:28;100806.03;;;13.85;98.30
81822;BME280;71257;52.192;5.654;2023-07-31T00:33:53;100792.81;;;13.82;98.69
81822;BME280;71257;52.192;5.654;2023-07-31T00:36:19;100789.09;;;13.88;98.34
81822;BME280;71257;52.192;5.654;2023-07-31T00:38:44;100798.47;;;13.92;98.29
81822;BME280;71257;52.192;5.654;2023-07-31T00:41:09;100783.03;;;13.86;98.69
81822;BME280;71257;52.192;5.654;2023-07-31T00:43:35;100792.75;;;13.94;99.26
81822;BME280;71257;52.192;5.654;2023-07-31T00:46:00;100781.56;;;13.95;98.88
81822;BME280;71257;52.192;5.654;2023-07-31T00:48:26;100780.47;;;13.96;98.97
81822;BME280;71257;52.192;5.654;2023-07-31T00:50:52;100782.72;;;13.99;99.08
81822;BME280;71257;52.192;5.654;2023-07-31T00:53:17;100777.59;;;14.03;98.50
81822;BME280;71257;52.192;5.654;2023-07-31T00:55:43;100781.50;;;14.07;98.63
81822;BME280;71257;52.192;5.654;2023-07-31T00:58:09;100777.59;;;14.03;98.89
81822;BME280;71257;52.192;5.654;2023-07-31T01:00:34;100769.22;;;14.09;99.08
81822;BME280;71257;52.192;5.654;2023-07-31T01:03:00;100764.22;;;14.06;98.55
81822;BME280;71257;52.192;5.654;2023-07-31T01:05:37;100775.13;;;14.18;98.53
81822;BME280;71257;52.192;5.654;2023-07-31T01:08:12;100758.50;;;14.08;99.02
81822;BME280;71257;52.192;5.654;2023-07-31T01:10:48;100766.06;;;14.17;99.08
81822;BME280;71257;52.192;5.654;2023-07-31T01:13:15;100765.91;;;14.24;99.10
81822;BME280;71257;52.192;5.654;2023-07-31T01:15:40;100758.34;;;14.31;98.99
81822;BME280;71257;52.192;5.654;2023-07-31T01:18:05;100767.22;;;14.38;98.97
81822;BME280;71257;52.192;5.654;2023-07-31T01:20:31;100776.16;;;14.45;98.90
81822;BME280;71257;52.192;5.654;2023-07-31T01:23:35;100765.00;;;14.52;99.22
81822;BME280;71257;52.192;5.654;2023-07-31T01:26:11;100759.84;;;14.56;99.21
81822;BME280;71257;52.192;5.654;2023-07-31T01:31:21;100759.09;;;14.60;99.75
81822;BME280;71257;52.192;5.654;2023-07-31T01:33:49;100766.66;;;14.70;99.59
81822;BME280;71257;52.192;5.654;2023-07-31T01:36:15;100764.72;;;14.70;99.02
81822;BME280;71257;52.192;5.654;2023-07-31T01:38:41;100766.47;;;14.76;99.00
81822;BME280;71257;52.192;5.654;2023-07-31T01:41:06;100764.38;;;14.83;99.22
81822;BME280;71257;52.192;5.654;2023-07-31T01:43:31;100753.91;;;14.80;98.67
81822;BME280;71257;52.192;5.654;2023-07-31T01:45:57;100758.91;;;14.83;98.62
81822;BME280;71257;52.192;5.654;2023-07-31T01:48:22;100757.31;;;14.88;98.02
81822;BME280;71257;52.192;5.654;2023-07-31T01:50:47;100752.56;;;14.83;98.45
81822;BME280;71257;52.192;5.654;2023-07-31T01:53:13;100753.91;;;14.80;98.69
81822;BME280;71257;52.192;5.654;2023-07-31T01:55:38;100750.59;;;14.78;98.26
81822;BME280;71257;52.192;5.654;2023-07-31T01:58:04;100742.88;;;14.75;97.92
81822;BME280;71257;52.192;5.654;2023-07-31T02:00:29;100746.94;;;14.73;97.73
81822;BME280;71257;52.192;5.654;2023-07-31T02:02:54;100740.06;;;14.70;98.31
81822;BME280;71257;52.192;5.654;2023-07-31T02:05:20;100735.91;;;14.68;98.51
81822;BME280;71257;52.192;5.654;2023-07-31T02:07:45;100741.66;;;14.66;98.56
81822;BME280;71257;52.192;5.654;2023-07-31T02:10:11;100741.13;;;14.69;98.52
81822;BME280;71257;52.192;5.654;2023-07-31T02:12:36;100728.53;;;14.68;98.19
81822;BME280;71257;52.192;5.654;2023-07-31T02:15:02;100721.13;;;14.69;98.28
81822;BME280;71257;52.192;5.654;2023-07-31T02:17:27;100726.41;;;14.75;98.42
81822;BME280;71257;52.192;5.654;2023-07-31T02:19:53;100715.97;;;14.72;98.59
81822;BME280;71257;52.192;5.654;2023-07-31T02:22:18;100711.88;;;14.75;98.42
81822;BME280;71257;52.192;5.654;2023-07-31T02:24:44;100716.09;;;14.82;98.87
81822;BME280;71257;52.192;5.654;2023-07-31T02:27:09;100710.75;;;14.93;98.69
81822;BME280;71257;52.192;5.654;2023-07-31T02:29:34;100709.97;;;14.97;98.54
81822;BME280;71257;52.192;5.654;2023-07-31T02:32:00;100702.91;;;15.01;98.24
81822;BME280;71257;52.192;5.654;2023-07-31T02:34:25;100698.81;;;15.04;98.65
81822;BME280;71257;52.192;5.654;2023-07-31T02:36:51;100694.75;;;15.06;97.72
81822;BME280;71257;52.192;5.654;2023-07-31T02:39:16;100692.00;;;15.06;98.18
81822;BME280;71257;52.192;5.654;2023-07-31T02:41:41;100699.13;;;15.07;97.98
81822;BME280;71257;52.192;5.654;2023-07-31T02:44:07;100701.06;;;15.07;98.27
81822;BME280;71257;52.192;5.654;2023-07-31T02:46:32;100693.91;;;15.06;98.06
81822;BME280;71257;52.192;5.654;2023-07-31T02:48:57;100701.31;;;15.05;97.87
81822;BME280;71257;52.192;5.654;2023-07-31T02:51:23;100698.06;;;15.08;97.76
81822;BME280;71257;52.192;5.654;2023-07-31T02:53:48;100695.06;;;15.10;97.63
81822;BME280;71257;52.192;5.654;2023-07-31T02:56:14;100693.72;;;15.12;97.34
81822;BME280;71257;52.192;5.654;2023-07-31T02:58:40;100695.31;;;15.08;97.93
81822;BME280;71257;52.192;5.654;2023-07-31T03:01:05;100690.41;;;15.10;97.87
81822;BME280;71257;52.192;5.654;2023-07-31T03:03:30;100684.09;;;15.10;97.37
81822;BME280;71257;52.192;5.654;2023-07-31T03:05:56;100677.19;;;15.07;97.25
81822;BME280;71257;52.192;5.654;2023-07-31T03:08:21;100679.41;;;15.10;97.92
81822;BME280;71257;52.192;5.654;2023-07-31T03:10:46;100689.00;;;15.08;97.64
81822;BME280;71257;52.192;5.654;2023-07-31T03:13:12;100685.75;;;15.11;97.65
81822;BME280;71257;52.192;5.654;2023-07-31T03:15:37;100695.88;;;15.10;97.30
81822;BME280;71257;52.192;5.654;2023-07-31T03:18:02;100699.19;;;15.12;97.29
81822;BME280;71257;52.192;5.654;2023-07-31T03:20:28;100685.47;;;15.12;97.38
81822;BME280;71257;52.192;5.654;2023-07-31T03:22:53;100684.91;;;15.10;97.61
81822;BME280;71257;52.192;5.654;2023-07-31T03:25:18;100689.00;;;15.08;97.20
81822;BME280;71257;52.192;5.654;2023-07-31T03:27:44;100681.03;;;15.06;98.04
81822;BME280;71257;52.192;5.654;2023-07-31T03:30:09;100684.34;;;15.08;97.04
81822;BME280;71257;52.192;5.654;2023-07-31T03:32:35;100689.81;;;15.08;96.57
81822;BME280;71257;52.192;5.654;2023-07-31T03:35:00;100682.41;;;15.09;96.87
81822;BME280;71257;52.192;5.654;2023-07-31T03:37:25;100674.72;;;15.06;96.72
81822;BME280;71257;52.192;5.654;2023-07-31T03:39:51;100678.28;;;15.06;96.74
81822;BME280;71257;52.192;5.654;2023-07-31T03:42:16;100671.91;;;15.01;97.18
81822;BME280;71257;52.192;5.654;2023-07-31T03:44:42;100677.38;;;15.01;97.09
81822;BME280;71257;52.192;5.654;2023-07-31T03:47:07;100667.50;;;15.00;96.60
81822;BME280;71257;52.192;5.654;2023-07-31T03:49:33;100675.22;;;15.03;96.54
81822;BME280;71257;52.192;5.654;2023-07-31T03:51:58;100678.22;;;15.01;96.82
81822;BME280;71257;52.192;5.654;2023-07-31T03:54:23;100672.72;;;15.01;96.82
81822;BME280;71257;52.192;5.654;2023-07-31T03:56:49;100671.28;;;14.94;96.94
81822;BME280;71257;52.192;5.654;2023-07-31T03:59:14;100675.16;;;14.98;96.37
81822;BME280;71257;52.192;5.654;2023-07-31T04:01:40;100677.31;;;14.96;96.62
81822;BME280;71257;52.192;5.654;2023-07-31T04:04:05;100669.34;;;14.94;96.70
81822;BME280;71257;52.192;5.654;2023-07-31T04:06:30;100673.75;;;14.95;96.25
81822;BME280;71257;52.192;5.654;2023-07-31T04:08:56;100667.94;;;14.92;96.47
81822;BME280;71257;52.192;5.654;2023-07-31T04:11:21;100678.41;;;14.95;96.21
81822;BME280;71257;52.192;5.654;2023-07-31T04:13:47;100665.47;;;14.90;95.80
81822;BME280;71257;52.192;5.654;2023-07-31T04:16:12;100666.28;;;14.91;95.67
81822;BME280;71257;52.192;5.654;2023-07-31T04:18:38;100666.28;;;14.91;96.01
81822;BME280;71257;52.192;5.654;2023-07-31T04:21:03;100662.72;;;14.90;95.76
81822;BME280;71257;52.192;5.654;2023-07-31T04:23:28;100656.34;;;14.84;95.95
81822;BME280;71257;52.192;5.654;2023-07-31T04:25:54;100654.69;;;14.83;96.40
81822;BME280;71257;52.192;5.654;2023-07-31T04:28:19;100653.03;;;14.82;95.86
81822;BME280;71257;52.192;5.654;2023-07-31T04:30:44;100645.91;;;14.81;95.90
81822;BME280;71257;52.192;5.654;2023-07-31T04:33:10;100651.88;;;14.78;95.44
81822;BME280;71257;52.192;5.654;2023-07-31T04:35:35;100647.75;;;14.76;96.37
81822;BME280;71257;52.192;5.654;2023-07-31T04:38:01;100645.25;;;14.74;96.33
81822;BME280;71257;52.192;5.654;2023-07-31T04:40:26;100641.44;;;14.75;95.49
81822;BME280;71257;52.192;5.654;2023-07-31T04:42:52;100645.25;;;14.74;96.13
81822;BME280;71257;52.192;5.654;2023-07-31T04:45:17;100641.94;;;14.72;95.93
81822;BME280;71257;52.192;5.654;2023-07-31T04:47:42;100647.22;;;14.79;95.35
81822;BME280;71257;52.192;5.654;2023-07-31T04:50:08;100645.00;;;14.76;95.83
81822;BME280;71257;52.192;5.654;2023-07-31T04:52:33;100639.00;;;14.79;95.87
81822;BME280;71257;52.192;5.654;2023-07-31T04:54:59;100628.88;;;14.79;95.25
81822;BME280;71257;52.192;5.654;2023-07-31T04:57:24;100631.88;;;14.78;95.55
81822;BME280;71257;52.192;5.654;2023-07-31T04:59:49;100635.75;;;14.82;95.62
81822;BME280;71257;52.192;5.654;2023-07-31T05:02:15;100636.00;;;14.80;95.77
81822;BME280;71257;52.192;5.654;2023-07-31T05:04:40;100633.22;;;14.75;96.03
81822;BME280;71257;52.192;5.654;2023-07-31T05:07:06;100622.81;;;14.77;95.96
81822;BME280;71257;52.192;5.654;2023-07-31T05:09:31;100624.91;;;14.70;96.77
81822;BME280;71257;52.192;5.654;2023-07-31T05:11:57;100617.97;;;14.63;97.12
81822;BME280;71257;52.192;5.654;2023-07-31T05:14:22;100619.31;;;14.60;97.71
81822;BME280;71257;52.192;5.654;2023-07-31T05:16:47;100616.56;;;14.60;97.55
81822;BME280;71257;52.192;5.654;2023-07-31T05:19:13;100612.94;;;14.55;97.35
81822;BME280;71257;52.192;5.654;2023-07-31T05:21:38;100614.53;;;14.50;97.71
81822;BME280;71257;52.192;5.654;2023-07-31T05:24:05;100616.69;;;14.48;97.96
81822;BME280;71257;52.192;5.654;2023-07-31T05:26:30;100617.00;;;14.52;97.52
81822;BME280;71257;52.192;5.654;2023-07-31T05:28:55;100614.97;;;14.42;98.19
81822;BME280;71257;52.192;5.654;2023-07-31T05:31:21;100608.72;;;14.47;97.81
81822;BME280;71257;52.192;5.654;2023-07-31T05:33:47;100609.56;;;14.47;97.80
81822;BME280;71257;52.192;5.654;2023-07-31T05:36:15;100610.38;;;14.48;97.98
81822;BME280;71257;52.192;5.654;2023-07-31T05:38:40;100610.38;;;14.48;97.61
81822;BME280;71257;52.192;5.654;2023-07-31T05:41:05;100598.84;;;14.46;98.04
81822;BME280;71257;52.192;5.654;2023-07-31T05:43:31;100602.41;;;14.46;97.98
81822;BME280;71257;52.192;5.654;2023-07-31T05:45:56;100606.81;;;14.47;97.70
81822;BME280;71257;52.192;5.654;2023-07-31T05:48:21;100600.50;;;14.47;97.54
81822;BME280;71257;52.192;5.654;2023-07-31T05:50:47;100604.06;;;14.47;97.49
81822;BME280;71257;52.192;5.654;2023-07-31T05:53:12;100605.72;;;14.48;98.03
81822;BME280;71257;52.192;5.654;2023-07-31T05:55:38;100585.72;;;14.48;98.08
81822;BME280;71257;52.192;5.654;2023-07-31T05:58:03;100591.00;;;14.55;97.50
81822;BME280;71257;52.192;5.654;2023-07-31T06:00:28;100583.28;;;14.51;98.14
81822;BME280;71257;52.192;5.654;2023-07-31T06:02:54;100588.25;;;14.55;97.69
81822;BME280;71257;52.192;5.654;2023-07-31T06:05:19;100576.22;;;14.56;97.55
81822;BME280;71257;52.192;5.654;2023-07-31T06:07:45;100577.38;;;14.60;97.31
81822;BME280;71257;52.192;5.654;2023-07-31T06:10:11;100578.44;;;14.59;98.03
81822;BME280;71257;52.192;5.654;2023-07-31T06:12:36;100564.22;;;14.62;97.97
81822;BME280;71257;52.192;5.654;2023-07-31T06:15:02;100568.56;;;14.58;97.98
81822;BME280;71257;52.192;5.654;2023-07-31T06:17:28;100569.72;;;14.62;97.50
81822;BME280;71257;52.192;5.654;2023-07-31T06:19:54;100565.88;;;14.63;97.87
81822;BME280;71257;52.192;5.654;2023-07-31T06:25:03;100567.03;;;14.67;97.57
81822;BME280;71257;52.192;5.654;2023-07-31T06:27:29;100559.44;;;14.74;97.59
81822;BME280;71257;52.192;5.654;2023-07-31T06:29:54;100554.78;;;14.74;97.27
81822;BME280;71257;52.192;5.654;2023-07-31T06:32:20;100552.88;;;14.75;97.66
81822;BME280;71257;52.192;5.654;2023-07-31T06:34:45;100547.91;;;14.72;97.77
81822;BME280;71257;52.192;5.654;2023-07-31T06:37:11;100552.03;;;14.74;97.23
81822;BME280;71257;52.192;5.654;2023-07-31T06:39:36;100553.44;;;14.77;97.69
81822;BME280;71257;52.192;5.654;2023-07-31T06:42:02;100547.66;;;14.73;98.01
81822;BME280;71257;52.192;5.654;2023-07-31T06:44:28;100550.13;;;14.75;98.08
81822;BME280;71257;52.192;5.654;2023-07-31T06:46:53;100543.00;;;14.74;97.67
81822;BME280;71257;52.192;5.654;2023-07-31T06:49:19;100532.34;;;14.77;97.90
81822;BME280;71257;52.192;5.654;2023-07-31T06:51:44;100531.56;;;14.82;98.27
81822;BME280;71257;52.192;5.654;2023-07-31T06:54:09;100536.59;;;14.90;98.06
81822;BME280;71257;52.192;5.654;2023-07-31T06:56:35;100520.19;;;14.95;97.65
81822;BME280;71257;52.192;5.654;2023-07-31T06:59:00;100535.03;;;14.99;97.65
81822;BME280;71257;52.192;5.654;2023-07-31T07:01:26;100528.97;;;14.97;98.00
81822;BME280;71257;52.192;5.654;2023-07-31T07:03:52;100523.44;;;14.92;98.12
81822;BME280;71257;52.192;5.654;2023-07-31T07:06:18;100528.41;;;14.95;97.87
81822;BME280;71257;52.192;5.654;2023-07-31T07:08:44;100525.16;;;14.98;97.93
81822;BME280;71257;52.192;5.654;2023-07-31T07:11:09;100518.34;;;15.06;97.47
81822;BME280;71257;52.192;5.654;2023-07-31T07:13:34;100521.66;;;15.08;97.54
81822;BME280;71257;52.192;5.654;2023-07-31T07:16:00;100515.13;;;15.14;97.74
81822;BME280;71257;52.192;5.654;2023-07-31T07:18:25;100516.28;;;15.18;97.80
81822;BME280;71257;52.192;5.654;2023-07-31T07:20:52;100514.34;;;15.19;98.03
81822;BME280;71257;52.192;5.654;2023-07-31T07:23:18;100513.78;;;15.16;97.56
81822;BME280;71257;52.192;5.654;2023-07-31T07:25:45;100505.25;;;15.13;97.94
81822;BME280;71257;52.192;5.654;2023-07-31T07:28:11;100503.38;;;15.19;97.82
81822;BME280;71257;52.192;5.654;2023-07-31T07:30:37;100501.50;;;15.24;97.53
81822;BME280;71257;52.192;5.654;2023-07-31T07:33:03;100495.50;;;15.27;97.44
81822;BME280;71257;52.192;5.654;2023-07-31T07:35:28;100508.94;;;15.29;97.78
81822;BME280;71257;52.192;5.654;2023-07-31T07:37:54;100502.94;;;15.32;97.63
81822;BME280;71257;52.192;5.654;2023-07-31T07:40:20;100504.59;;;15.33;97.95
81822;BME280;71257;52.192;5.654;2023-07-31T07:42:45;100494.72;;;15.32;97.44
81822;BME280;71257;52.192;5.654;2023-07-31T07:45:12;100508.22;;;15.38;98.05
81822;BME280;71257;52.192;5.654;2023-07-31T07:47:40;100495.63;;;15.42;96.98
81822;BME280;71257;52.192;5.654;2023-07-31T07:50:05;100497.31;;;15.48;97.36
81822;BME280;71257;52.192;5.654;2023-07-31T07:52:31;100497.56;;;15.47;97.68
81822;BME280;71257;52.192;5.654;2023-07-31T07:54:56;100493.72;;;15.48;97.68
81822;BME280;71257;52.192;5.654;2023-07-31T07:57:22;100498.97;;;15.49;97.58
81822;BME280;71257;52.192;5.654;2023-07-31T07:59:47;100491.03;;;15.53;98.01
81822;BME280;71257;52.192;5.654;2023-07-31T08:02:13;100483.84;;;15.47;97.93
81822;BME280;71257;52.192;5.654;2023-07-31T08:04:38;100493.84;;;15.58;97.67
81822;BME280;71257;52.192;5.654;2023-07-31T08:07:06;100487.25;;;15.59;97.78
81822;BME280;71257;52.192;5.654;2023-07-31T08:09:32;100483.63;;;15.54;97.50
81822;BME280;71257;52.192;5.654;2023-07-31T08:11:57;100488.09;;;15.60;98.22
81822;BME280;71257;52.192;5.654;2023-07-31T08:14:27;100477.69;;;15.62;97.84
81822;BME280;71257;52.192;5.654;2023-07-31T08:16:52;100478.53;;;15.62;97.85
81822;BME280;71257;52.192;5.654;2023-07-31T08:19:18;100477.19;;;15.70;97.80
81822;BME280;71257;52.192;5.654;2023-07-31T08:21:43;100472.25;;;15.72;97.76
81822;BME280;71257;52.192;5.654;2023-07-31T08:24:09;100482.16;;;15.73;97.77
81822;BME280;71257;52.192;5.654;2023-07-31T08:26:34;100467.03;;;15.70;97.25
81822;BME280;71257;52.192;5.654;2023-07-31T08:28:59;100472.56;;;15.75;98.00
81822;BME280;71257;52.192;5.654;2023-07-31T08:31:25;100473.38;;;15.76;97.33
81822;BME280;71257;52.192;5.654;2023-07-31T08:33:50;100463.56;;;15.85;96.97
81822;BME280;71257;52.192;5.654;2023-07-31T08:36:15;100472.59;;;15.81;98.10
81822;BME280;71257;52.192;5.654;2023-07-31T08:38:41;100462.47;;;15.86;97.38
81822;BME280;71257;52.192;5.654;2023-07-31T08:41:06;100472.94;;;15.94;97.46
81822;BME280;71257;52.192;5.654;2023-07-31T08:43:32;100466.06;;;15.97;96.78
81822;BME280;71257;52.192;5.654;2023-07-31T08:45:58;100463.06;;;15.98;97.15
81822;BME280;71257;52.192;5.654;2023-07-31T08:48:24;100458.41;;;15.99;97.26
81822;BME280;71257;52.192;5.654;2023-07-31T08:50:52;100475.75;;;16.09;97.21
81822;BME280;71257;52.192;5.654;2023-07-31T08:53:18;100477.16;;;16.17;97.53
81822;BME280;71257;52.192;5.654;2023-07-31T08:55:44;100463.41;;;16.12;96.40
81822;BME280;71257;52.192;5.654;2023-07-31T08:58:12;100464.25;;;16.23;96.65
81822;BME280;71257;52.192;5.654;2023-07-31T09:00:38;100460.41;;;16.24;97.04
81822;BME280;71257;52.192;5.654;2023-07-31T09:03:09;100465.34;;;16.17;96.26
81822;BME280;71257;52.192;5.654;2023-07-31T09:05:36;100463.72;;;16.26;96.84
81822;BME280;71257;52.192;5.654;2023-07-31T09:08:05;100464.00;;;16.29;96.10
81822;BME280;71257;52.192;5.654;2023-07-31T09:10:31;100461.78;;;16.21;96.75
81822;BME280;71257;52.192;5.654;2023-07-31T09:12:57;100464.78;;;16.15;96.44
81822;BME280;71257;52.192;5.654;2023-07-31T09:15:23;100464.81;;;16.20;96.74
81822;BME280;71257;52.192;5.654;2023-07-31T09:17:58;100458.22;;;16.26;96.98
81822;BME280;71257;52.192;5.654;2023-07-31T09:20:24;100447.78;;;16.23;96.92
81822;BME280;71257;52.192;5.654;2023-07-31T09:22:50;100460.72;;;16.32;96.70
81822;BME280;71257;52.192;5.654;2023-07-31T09:25:19;100450.84;;;16.36;97.18
81822;BME280;71257;52.192;5.654;2023-07-31T09:27:47;100454.13;;;16.28;97.10
81822;BME280;71257;52.192;5.654;2023-07-31T09:30:13;100441.78;;;16.36;97.05
81822;BME280;71257;52.192;5.654;2023-07-31T09:32:38;100447.84;;;16.48;96.66
81822;BME280;71257;52.192;5.654;2023-07-31T09:35:28;100448.47;;;16.65;96.55
81822;BME280;71257;52.192;5.654;2023-07-31T09:37:57;100448.69;;;16.64;96.49
81822;BME280;71257;52.192;5.654;2023-07-31T09:43:03;100444.84;;;16.60;96.80
81822;BME280;71257;52.192;5.654;2023-07-31T09:45:34;100443.47;;;16.52;96.43
81822;BME280;71257;52.192;5.654;2023-07-31T09:47:59;100442.06;;;16.50;96.18
81822;BME280;71257;52.192;5.654;2023-07-31T09:50:25;100440.44;;;16.49;96.50
81822;BME280;71257;52.192;5.654;2023-07-31T09:52:51;100437.41;;;16.55;96.35
81822;BME280;71257;52.192;5.654;2023-07-31T09:55:18;100437.19;;;16.67;97.05
81822;BME280;71257;52.192;5.654;2023-07-31T09:57:47;100438.56;;;16.69;96.59
81822;BME280;71257;52.192;5.654;2023-07-31T10:00:14;100438.00;;;16.67;96.23
81822;BME280;71257;52.192;5.654;2023-07-31T10:02:40;100437.69;;;16.64;96.05
81822;BME280;71257;52.192;5.654;2023-07-31T10:05:07;100431.97;;;16.65;96.37
81822;BME280;71257;52.192;5.654;2023-07-31T10:07:37;100444.09;;;16.85;95.91
81822;BME280;71257;52.192;5.654;2023-07-31T10:10:05;100435.84;;;16.95;95.57
81822;BME280;71257;52.192;5.654;2023-07-31T10:12:33;100430.06;;;17.01;95.17
81822;BME280;71257;52.192;5.654;2023-07-31T10:15:00;100431.97;;;17.11;95.35
81822;BME280;71257;52.192;5.654;2023-07-31T10:17:26;100429.22;;;17.11;95.11
81822;BME280;71257;52.192;5.654;2023-07-31T10:19:53;100438.84;;;17.14;95.65
81822;BME280;71257;52.192;5.654;2023-07-31T10:22:20;100440.50;;;17.20;95.04
81822;BME280;71257;52.192;5.654;2023-07-31T10:24:46;100438.88;;;17.08;95.30
81822;BME280;71257;52.192;5.654;2023-07-31T10:27:12;100433.63;;;17.02;95.23
81822;BME280;71257;52.192;5.654;2023-07-31T10:29:38;100429.78;;;16.98;95.21
81822;BME280;71257;52.192;5.654;2023-07-31T10:32:06;100438.31;;;16.96;95.66
81822;BME280;71257;52.192;5.654;2023-07-31T10:34:35;100435.00;;;16.99;96.32
81822;BME280;71257;52.192;5.654;2023-07-31T10:37:22;100433.91;;;17.11;95.28
81822;BME280;71257;52.192;5.654;2023-07-31T10:42:34;100430.06;;;17.06;95.45
81822;BME280;71257;52.192;5.654;2023-07-31T10:45:05;100427.84;;;17.03;95.29
81822;BME280;71257;52.192;5.654;2023-07-31T10:47:37;100426.75;;;16.99;95.63
81822;BME280;71257;52.192;5.654;2023-07-31T10:52:55;100436.66;;;17.31;95.70
81822;BME280;71257;52.192;5.654;2023-07-31T10:58:13;100431.69;;;17.28;93.84
81822;BME280;71257;52.192;5.654;2023-07-31T11:00:41;100431.41;;;17.24;94.09
81822;BME280;71257;52.192;5.654;2023-07-31T11:03:09;100428.13;;;17.27;95.10
81822;BME280;71257;52.192;5.654;2023-07-31T11:13:43;100435.81;;;17.20;94.42
81822;BME280;71257;52.192;5.654;2023-07-31T11:16:11;100424.53;;;17.17;94.87
81822;BME280;71257;52.192;5.654;2023-07-31T11:18:39;100422.63;;;17.07;95.08
81822;BME280;71257;52.192;5.654;2023-07-31T11:21:04;100430.88;;;17.12;95.10
81822;BME280;71257;52.192;5.654;2023-07-31T11:23:30;100433.91;;;17.11;95.06
81822;BME280;71257;52.192;5.654;2023-07-31T11:25:59;100438.03;;;17.18;95.41
81822;BME280;71257;52.192;5.654;2023-07-31T11:28:25;100433.63;;;17.32;94.13
81822;BME280;71257;52.192;5.654;2023-07-31T11:30:50;100436.06;;;17.39;94.52
81822;BME280;71257;52.192;5.654;2023-07-31T11:33:16;100428.94;;;17.33;94.30
81822;BME280;71257;52.192;5.654;2023-07-31T11:35:44;100429.22;;;17.31;94.77
81822;BME280;71257;52.192;5.654;2023-07-31T11:38:12;100425.91;;;17.19;95.03
81822;BME280;71257;52.192;5.654;2023-07-31T11:40:46;100428.41;;;17.16;94.87
81822;BME280;71257;52.192;5.654;2023-07-31T11:43:12;100423.16;;;17.19;95.46
81822;BME280;71257;52.192;5.654;2023-07-31T11:45:41;100421.25;;;17.20;94.89
81822;BME280;71257;52.192;5.654;2023-07-31T11:48:07;100425.63;;;17.26;95.23
81822;BME280;71257;52.192;5.654;2023-07-31T11:50:33;100416.28;;;17.32;95.50
81822;BME280;71257;52.192;5.654;2023-07-31T11:53:06;100430.03;;;17.27;95.94
81822;BME280;71257;52.192;5.654;2023-07-31T11:55:33;100432.25;;;17.25;96.54
81822;BME280;71257;52.192;5.654;2023-07-31T11:57:58;100425.09;;;17.14;95.94
81822;BME280;71257;52.192;5.654;2023-07-31T12:00:25;100428.69;;;17.04;96.03
81822;BME280;71257;52.192;5.654;2023-07-31T12:02:51;100432.81;;;16.96;96.26
81822;BME280;71257;52.192;5.654;2023-07-31T12:05:17;100417.41;;;16.95;96.80
81822;BME280;71257;52.192;5.654;2023-07-31T12:07:44;100411.91;;;16.90;95.99
81822;BME280;71257;52.192;5.654;2023-07-31T12:10:09;100421.53;;;17.03;96.68
81822;BME280;71257;52.192;5.654;2023-07-31T12:12:35;100423.72;;;17.01;96.71
81822;BME280;71257;52.192;5.654;2023-07-31T12:15:00;100419.31;;;17.00;96.63
81822;BME280;71257;52.192;5.654;2023-07-31T12:17:26;100418.22;;;16.96;96.33
81822;BME280;71257;52.192;5.654;2023-07-31T12:19:51;100416.03;;;16.93;96.23
81822;BME280;71257;52.192;5.654;2023-07-31T12:22:16;100422.09;;;16.95;96.57
81822;BME280;71257;52.192;5.654;2023-07-31T12:24:43;100426.75;;;16.99;96.28
81822;BME280;71257;52.192;5.654;2023-07-31T12:29:47;100414.63;;;17.16;96.12
81822;BME280;71257;52.192;5.654;2023-07-31T12:32:30;100425.63;;;17.26;95.63
81822;BME280;71257;52.192;5.654;2023-07-31T12:34:59;100416.53;;;17.40;94.98
81822;BME280;71257;52.192;5.654;2023-07-31T12:37:24;100408.53;;;17.44;94.31
81822;BME280;71257;52.192;5.654;2023-07-31T12:39:50;100400.00;;;17.46;94.65
81822;BME280;71257;52.192;5.654;2023-07-31T12:42:17;100391.44;;;17.57;94.33
81822;BME280;71257;52.192;5.654;2023-07-31T12:44:43;100386.22;;;17.46;94.39
81822;BME280;71257;52.192;5.654;2023-07-31T12:47:08;100391.47;;;17.42;94.32
81822;BME280;71257;52.192;5.654;2023-07-31T12:49:33;100378.53;;;17.43;93.75
81822;BME280;71257;52.192;5.654;2023-07-31T12:51:59;100380.72;;;17.46;94.36
81822;BME280;71257;52.192;5.654;2023-07-31T12:54:24;100380.75;;;17.40;93.73
81822;BME280;71257;52.192;5.654;2023-07-31T12:56:49;100387.06;;;17.46;94.04
81822;BME280;71257;52.192;5.654;2023-07-31T12:59:15;100376.06;;;17.36;94.43
81822;BME280;71257;52.192;5.654;2023-07-31T13:01:40;100386.81;;;17.32;93.68
81822;BME280;71257;52.192;5.654;2023-07-31T13:04:05;100373.59;;;17.39;93.57
81822;BME280;71257;52.192;5.654;2023-07-31T13:06:33;100372.72;;;17.49;94.11
81822;BME280;71257;52.192;5.654;2023-07-31T13:08:59;100371.63;;;17.55;92.78
81822;BME280;71257;52.192;5.654;2023-07-31T13:11:24;100378.75;;;17.61;92.91
81822;BME280;71257;52.192;5.654;2023-07-31T13:13:49;100377.06;;;17.76;93.55